Aviation Digital Data Service (ADDS)

Output produced by TAFs form (0026 UTC 27 May 2017)
found at http://www.aviationweather.gov/adds/tafs/
 
METAR text: RJSR 270000Z 18004KT 4000 R11/2000N -SHRA BCFG BR FEW001 SCT004 BKN010 14/14 Q1008
Conditions at: RJSR (ODATE-NOSHIRO , JP) observed 0000 UTC 27 May 2017
Temperature: 14.0°C (57°F)
Dewpoint: 14.0°C (57°F) [RH = 100%]
Pressure (altimeter): 29.76 inches Hg (1008.0 mb)
Winds: from the S (180 degrees) at 5 MPH (4 knots; 2.1 m/s)
Visibility: 2.49 miles (4.01 km)
Ceiling: 1000 feet AGL
Clouds: few clouds at 100 feet AGL
scattered clouds at 400 feet AGL
broken clouds at 1000 feet AGL
Weather: -SHRA BCFG BR  (light rain showers, patches of fog, mist)